METAR AND TAF INFORMATION

METAR FOR SVMI
ADDS - METARS form results

(0627 UTC 18 June 2021)
Data provider http://aviationweather.gov/metar/data/
 
METAR text: SVMI 180602Z AUTO 08004KT NCD 26/25 Q1014
Conditions at: SVMI (CARACAS/S. BOLIV, VE) observed 0602 UTC 18 June 2021
Temperature: 26.0°C (79°F)
Dewpoint: 25.0°C (77°F) [RH = 94%]
Pressure (altimeter): 29.94 inches Hg (1014.0 mb)
Winds: from the E (80 degrees) at 5 MPH (4 knots; 2.1 m/s)
Visibility: missing
Ceiling: at least 12,000 feet AGL
Clouds: sky clear below 12,000 feet AGL
Weather: no significant weather observed at this time

METAR text: SVMI 180600Z 00000KT 9999 BKN016 23/21 Q1012
Conditions at: SVMI (CARACAS/S. BOLIV, VE) observed 0600 UTC 18 June 2021
Temperature: 23.0°C (73°F)
Dewpoint: 21.0°C (70°F) [RH = 89%]
Pressure (altimeter): 29.88 inches Hg (1012.0 mb)
Winds: calm
Visibility: 6 or more miles (10+ km)
Ceiling: 1600 feet AGL
Clouds: broken clouds at 1600 feet AGL
Weather: no significant weather observed at this time

Forecast for: SVMI (CARACAS/S. BOLIV, VE)
Text: TAF SVMI 180400Z 1906/2006 00000KT 9999 BKN016 TX28/1904Z TN20/1904Z
Forecast period: 0600 UTC 19 June 2021 to 0600 UTC 20 June 2021
Forecast type: FROM: standard forecast or significant change
Winds: calm
Visibility: 6 or more miles (10+ km)
Ceiling: 1600 feet AGL
Clouds: broken clouds at 1600 feet AGL
Weather: no significant weather forecast for this period
Text: PROB30
Forecast period: 0600 to 1000 UTC 19 June 2021
Forecast type: TEMPORARY: The following changes expected for less than half the time period
Winds: from the E (90 degrees) at 2 MPH (2 knots; 1.0 m/s)
Visibility: 6 miles (9 km)
Ceiling: 8000 feet AGL
Clouds: scattered clouds at 1600 feet AGL
broken clouds at 8000 feet AGL
Weather: DZ  (moderate drizzle)

 

AIRPORT MAP

 

RUNWAY INFORMATION

Runway 09 Runway length 9930 ft Runway width 145 ft
Runway elevation 230 ft Runway displaced threshold 0 ft Runway heading 76
Runway 27 Runway length 9930 ft Runway width 145 ft
Runway elevation 101 ft Runway displaced threshold 0 ft Runway heading 256
Runway 10 Runway length 11483 ft Runway width 148 ft
Runway elevation 235 ft Runway displaced threshold 0 ft Runway heading 88
Runway 28 Runway length 11483 ft Runway width 148 ft
Runway elevation 147 ft Runway displaced threshold 0 ft Runway heading 268

 

AIRPORT FREQUENCIES

Type APP Name MAIQUETIA Frequency 120.1 MHZ
Type ATIS Name ATIS Frequency 114.8 MHZ
Type CLD Name CLD Frequency 119.5 MHZ
Type DEP Name MAIQUETIA Frequency 118.4 MHZ
Type GND Name GND Frequency 121.9 MHZ
Type RDO Name MAIQUETIA Frequency 130.1 MHZ
Type TWR Name MAIQUETIA Frequency 118.1 MHZ

 

AIRPORT NEAR NAVIGATION AIDS

Type VOR-DME Name Maiquetia Frequency 114800 KHZ
Type NDB Name Maiquetia Frequency 292 KHZ